Data for 04/18/2016

Time Sea-Level Adjusted Pressure Absolute Pressure Temperature Relative Humidity Dew Point   
(mb) (inHg) (mb) (inHg) (C) (F) (%) (C) (F)
00:05 1030 30.42 859 25.37 5.4 41.8 47 -5.1 22.8
00:10 1030 30.42 859 25.37 5.4 41.7 47 -5 23.1
00:15 1030 30.42 859 25.37 5.3 41.6 47 -4.9 23.1
00:20 1030 30.42 859 25.37 5.2 41.4 48 -4.9 23.2
00:25 1029 30.39 859 25.37 5.2 41.3 48 -4.8 23.3
00:30 1029 30.39 859 25.37 5.1 41.2 49 -4.7 23.5
00:35 1029 30.39 859 25.37 5.1 41.1 49 -4.8 23.4
00:40 1029 30.39 859 25.37 5.1 41.1 49 -4.7 23.6
00:45 1029 30.39 859 25.37 5 41.1 50 -4.6 23.7
00:50 1029 30.39 859 25.37 5 41 50 -4.5 23.9
00:55 1029 30.39 859 25.37 4.9 40.9 50 -4.6 23.8
01:00 1029 30.39 859 25.37 4.9 40.9 50 -4.6 23.8
01:05 1029 30.39 859 25.37 5 41 49 -4.8 23.4
01:10 1029 30.39 859 25.37 5.1 41.1 49 -4.7 23.6
01:15 1029 30.39 858 25.34 5 41 50 -4.6 23.6
01:20 1029 30.39 859 25.37 4.9 40.9 50 -4.6 23.7
01:25 1029 30.39 859 25.37 4.9 40.8 50 -4.6 23.7
01:30 1029 30.39 859 25.37 4.8 40.7 50 -4.7 23.5
01:35 1029 30.39 859 25.37 4.8 40.6 50 -4.7 23.5
01:40 1030 30.42 859 25.37 4.7 40.5 50 -4.8 23.4
01:45 1030 30.42 859 25.37 4.7 40.4 51 -4.7 23.6
01:50 1029 30.39 859 25.37 4.6 40.2 51 -4.6 23.7
01:55 1029 30.39 859 25.37 4.5 40.1 52 -4.6 23.8
02:00 1029 30.39 859 25.37 4.4 39.9 53 -4.5 23.9
02:05 1029 30.39 859 25.37 4.3 39.7 53 -4.4 24.1
02:10 1029 30.39 859 25.37 4.1 39.4 54 -4.4 24.1
02:15 1029 30.39 858 25.34 4.1 39.3 54 -4.3 24.2
02:20 1029 30.39 858 25.34 4 39.2 55 -4.3 24.3
02:25 1029 30.39 858 25.34 4 39.2 55 -4.3 24.3
02:30 1029 30.39 858 25.34 4 39.2 55 -4.2 24.4
02:35 1029 30.39 858 25.34 3.9 39.1 56 -4.1 24.6
02:40 1029 30.39 858 25.34 3.9 39.1 56 -4 24.7
02:45 1029 30.39 858 25.34 4 39.1 56 -4 24.8
02:50 1029 30.39 858 25.34 3.9 39.1 57 -3.9 25
02:55 1029 30.39 859 25.37 3.9 39 57 -3.8 25.1
03:00 1029 30.39 858 25.34 3.9 39.1 57 -3.8 25.2
03:05 1029 30.39 858 25.34 3.9 39 58 -3.7 25.4
03:10 1029 30.39 858 25.34 3.9 39 58 -3.7 25.4
03:15 1029 30.39 858 25.34 3.9 39 58 -3.6 25.4
03:20 1029 30.39 858 25.34 3.9 39 58 -3.6 25.6
03:25 1029 30.39 858 25.34 3.9 38.9 58 -3.6 25.5
03:30 1029 30.39 858 25.34 3.9 39 58 -3.6 25.5
03:35 1029 30.39 858 25.34 3.9 39 58 -3.6 25.5
03:40 1029 30.39 858 25.34 3.8 38.9 58 -3.6 25.5
03:45 1029 30.39 858 25.34 3.8 38.9 59 -3.5 25.6
03:50 1029 30.39 858 25.34 3.8 38.8 59 -3.5 25.6
03:55 1029 30.39 858 25.34 3.7 38.7 59 -3.5 25.7
04:00 1029 30.39 858 25.34 3.6 38.6 60 -3.4 25.9
04:05 1029 30.39 858 25.34 3.5 38.4 60 -3.5 25.7
04:10 1029 30.39 858 25.34 3.5 38.4 60 -3.5 25.7
04:15 1029 30.39 858 25.34 3.5 38.3 60 -3.5 25.7
04:20 1029 30.39 858 25.34 3.5 38.3 61 -3.4 25.9
04:25 1029 30.39 858 25.34 3.5 38.2 61 -3.4 25.9
04:30 1029 30.39 858 25.34 3.4 38.2 61 -3.4 25.8
04:35 1029 30.39 858 25.34 3.4 38.1 61 -3.4 25.9
04:40 1029 30.39 858 25.34 3.3 38 62 -3.3 26.1
04:45 1029 30.39 858 25.34 3.3 37.9 62 -3.3 26
04:50 1029 30.39 858 25.34 3.3 37.9 62 -3.4 25.9
04:55 1029 30.39 858 25.34 3.3 37.9 62 -3.3 26
05:00 1029 30.39 859 25.37 3.3 38 62 -3.4 26
05:05 1029 30.39 859 25.37 3.3 38 61 -3.4 25.9
05:10 1029 30.39 859 25.37 3.4 38.2 60 -3.5 25.7
05:15 1030 30.42 859 25.37 3.4 38.2 61 -3.4 25.9
05:20 1029 30.39 859 25.37 3.4 38.2 60 -3.5 25.7
05:25 1030 30.42 859 25.37 3.4 38.2 60 -3.5 25.7
05:30 1030 30.42 859 25.37 3.4 38.2 61 -3.4 25.9
05:35 1030 30.42 859 25.37 3.3 38 63 -3.1 26.4
05:40 1030 30.42 859 25.37 3.2 37.7 64 -3.1 26.5
05:45 1030 30.42 859 25.37 3.1 37.5 65 -2.9 26.8
05:50 1030 30.42 859 25.37 3 37.3 66 -2.8 27
05:55 1030 30.42 859 25.37 2.8 37.1 67 -2.7 27.2
06:00 1030 30.42 859 25.37 2.8 37 67 -2.7 27.2
06:05 1030 30.42 859 25.37 2.8 37 67 -2.7 27.2
06:10 1030 30.42 859 25.37 2.8 37.1 67 -2.7 27.1
06:15 1030 30.42 859 25.37 2.8 37.1 68 -2.5 27.5
06:20 1030 30.42 859 25.37 2.7 36.9 68 -2.5 27.5
06:25 1030 30.42 859 25.37 2.6 36.8 69 -2.5 27.5
06:30 1030 30.42 859 25.37 2.6 36.8 69 -2.6 27.4
06:35 1030 30.42 859 25.37 2.6 36.7 69 -2.5 27.4
06:40 1030 30.42 859 25.37 2.6 36.7 69 -2.4 27.7
06:45 1030 30.42 859 25.37 2.6 36.7 70 -2.4 27.7
06:50 1030 30.42 859 25.37 2.6 36.7 71 -2.2 28.1
06:55 1030 30.42 859 25.37 2.6 36.6 71 -2.1 28.2
07:00 1030 30.42 859 25.37 2.6 36.6 71 -2.1 28.2
07:05 1030 30.42 859 25.37 2.6 36.6 72 -2 28.4
07:10 1030 30.42 859 25.37 2.6 36.6 71 -2.2 28.1
07:15 1030 30.42 859 25.37 2.6 36.7 70 -2.3 27.9
07:20 1030 30.42 859 25.37 2.7 36.9 68 -2.7 27.2
07:25 1030 30.42 859 25.37 2.9 37.2 67 -2.6 27.4
07:30 1030 30.42 859 25.37 3 37.3 67 -2.6 27.3
07:35 1030 30.42 859 25.37 3 37.4 66 -2.7 27.1
07:40 1030 30.42 859 25.37 3.2 37.7 65 -2.7 27.1
07:45 1030 30.42 859 25.37 3.3 37.9 66 -2.6 27.4
07:50 1030 30.42 859 25.37 3.3 38 65 -2.6 27.4
07:55 1030 30.42 859 25.37 3.5 38.4 64 -2.6 27.3
08:00 1030 30.42 859 25.37 3.7 38.7 62 -2.8 26.9
08:05 1030 30.42 859 25.37 3.9 39 61 -2.9 26.9
08:10 1030 30.42 859 25.37 3.9 39.1 60 -3.2 26.2
08:15 1030 30.42 859 25.37 4 39.3 59 -3.3 26
08:20 1030 30.42 859 25.37 4 39.3 59 -3.4 26
08:25 1030 30.42 859 25.37 4.3 39.7 56 -3.7 25.4
08:30 1030 30.42 859 25.37 4.6 40.3 56 -3.5 25.7
08:35 1030 30.42 859 25.37 4.9 40.8 55 -3.4 25.9
08:40 1030 30.42 859 25.37 5.2 41.4 54 -3.4 25.9
08:45 1030 30.42 859 25.37 5.2 41.3 54 -3.3 26
08:50 1030 30.42 859 25.37 5.4 41.8 54 -3.1 26.5
08:55 1030 30.42 859 25.37 5.6 42.1 52 -3.4 25.8
09:00 1030 30.42 859 25.37 6.1 43 50 -3.6 25.5
09:05 1030 30.42 859 25.37 6.6 43.8 49 -3.5 25.8
09:10 1030 30.42 859 25.37 6.3 43.3 50 -3.2 26.2
09:15 1030 30.42 859 25.37 6.3 43.4 49 -3.6 25.6
09:20 1030 30.42 859 25.37 6.6 43.9 49 -3.3 26
09:25 1030 30.42 859 25.37 6.6 43.9 49 -3.4 25.9
09:30 1030 30.42 859 25.37 6.3 43.3 48 -3.9 25.1
09:35 1030 30.42 859 25.37 6.6 43.8 48 -3.6 25.6
09:40 1030 30.42 859 25.37 7 44.6 47 -3.6 25.6
09:45 1030 30.42 859 25.37 7.3 45.1 46 -3.6 25.5
09:50 1030 30.42 859 25.37 7.5 45.5 46 -3.3 26.1
09:55 1030 30.42 859 25.37 7.1 44.7 48 -3.1 26.5
10:00 1030 30.42 859 25.37 7.2 44.9 47 -3.4 25.9
10:05 1030 30.42 859 25.37 6.7 44.1 49 -3.2 26.3
10:10 1030 30.42 859 25.37 7 44.6 48 -3.3 26
10:15 1030 30.42 859 25.37 7 44.6 49 -3 26.6
10:20 1030 30.42 859 25.37 7.4 45.3 46 -3.5 25.7
10:25 1030 30.42 859 25.37 7.2 45 48 -3.2 26.3
10:30 1030 30.42 859 25.37 6.9 44.4 49 -3.2 26.3
10:35 1030 30.42 859 25.37 7 44.6 47 -3.6 25.5
10:40 1030 30.42 859 25.37 7.6 45.7 45 -3.5 25.7
10:45 1030 30.42 859 25.37 7.3 45.1 47 -3.3 26
10:50 1030 30.42 859 25.37 6.6 44 48 -3.6 25.6
10:55 1029 30.39 859 25.37 7 44.6 47 -3.5 25.6
11:00 1029 30.39 859 25.37 7.3 45.2 44 -4 24.9
11:05 1029 30.39 858 25.34 8.2 46.8 42 -3.8 25.1
11:10 1029 30.39 858 25.34 7.9 46.1 44 -3.5 25.7
11:15 1029 30.39 858 25.34 8.1 46.7 43 -3.8 25.2
11:20 1029 30.39 858 25.34 8.2 46.8 44 -3.3 26.1
11:25 1029 30.39 858 25.34 7.9 46.2 45 -3.3 26.1
11:30 1029 30.39 858 25.34 8.4 47.1 40 -4.4 24.1
11:35 1029 30.39 858 25.34 9.1 48.3 43 -2.9 26.7
11:40 1029 30.39 858 25.34 8.8 47.8 41 -3.7 25.4
11:45 1029 30.39 858 25.34 8.6 47.4 43 -3.3 26
11:50 1029 30.39 858 25.34 8.5 47.3 42 -3.7 25.3
11:55 1029 30.39 858 25.34 9.1 48.5 40 -3.7 25.3
12:00 1029 30.39 858 25.34 9.5 49 39 -3.7 25.4
12:05 1029 30.39 858 25.34 9.2 48.6 40 -3.5 25.7
12:10 1029 30.39 858 25.34 9.3 48.8 40 -3.5 25.6
12:15 1029 30.39 858 25.34 9.6 49.3 39 -3.6 25.6
12:20 1029 30.39 858 25.34 9.5 49 39 -3.6 25.5
12:25 1029 30.39 858 25.34 9 48.1 40 -3.9 25
12:30 1029 30.39 858 25.34 9.4 48.8 39 -4 24.9
12:35 1028 30.36 858 25.34 9.8 49.6 39 -3.5 25.6
12:40 1028 30.36 858 25.34 10.2 50.3 37 -4 24.8
12:45 1028 30.36 858 25.34 10.6 51 36 -3.9 25
12:50 1028 30.36 858 25.34 10.1 50.1 40 -3 26.6
12:55 1028 30.36 857 25.31 10 49.9 37 -4.1 24.6
13:00 1028 30.36 857 25.31 10.3 50.5 36 -3.9 25
13:05 1028 30.36 857 25.31 11.3 52.3 35 -3.7 25.3
13:10 1028 30.36 857 25.31 10.5 50.9 37 -3.7 25.3
13:15 1028 30.36 857 25.31 10.5 50.8 37 -3.5 25.7
13:20 1028 30.36 857 25.31 10.5 50.9 36 -3.8 25.1
13:25 1028 30.36 857 25.31 10.6 51.1 36 -3.6 25.5
13:30 1028 30.36 857 25.31 11.2 52.2 34 -4 24.7
13:35 1028 30.36 857 25.31 12.5 54.5 32 -3.5 25.7
13:40 1028 30.36 857 25.31 12.9 55.2 31 -3.7 25.4
13:45 1028 30.36 857 25.31 12.6 54.6 30 -4.3 24.2
13:50 1028 30.36 857 25.31 12.6 54.6 31 -4.2 24.4
13:55 1028 30.36 857 25.31 12.3 54.2 31 -4.3 24.2
14:00 1028 30.36 857 25.31 12 53.6 33 -3.7 25.3
14:05 1028 30.36 857 25.31 11.2 52.2 32 -4.9 23.2
14:10 1028 30.36 857 25.31 11.7 53.1 32 -4.3 24.2
14:15 1028 30.36 857 25.31 12.3 54.1 33 -3.6 25.5
14:20 1028 30.36 857 25.31 12.4 54.4 32 -3.7 25.4
14:25 1028 30.36 857 25.31 11.7 53 34 -3.8 25.2
14:30 1027 30.33 857 25.31 11.2 52.1 33 -4.3 24.3
14:35 1027 30.33 857 25.31 11.4 52.5 34 -4.1 24.7
14:40 1027 30.33 857 25.31 11.7 53.1 33 -4.1 24.5
14:45 1027 30.33 857 25.31 12.2 54 33 -3.5 25.7
14:50 1027 30.33 856 25.28 12.7 54.9 31 -3.9 25
14:55 1027 30.33 856 25.28 12.4 54.4 33 -3.3 26
15:00 1027 30.33 856 25.28 12.1 53.7 33 -3.6 25.5
15:05 1027 30.33 856 25.28 11.8 53.2 33 -3.9 25
15:10 1027 30.33 856 25.28 11.4 52.5 35 -3.6 25.5
15:15 1027 30.33 856 25.28 11.6 52.9 33 -4.1 24.7
15:20 1027 30.33 856 25.28 11.6 52.9 34 -3.7 25.3
15:25 1027 30.33 856 25.28 11.5 52.7 32 -4.5 23.9
15:30 1027 30.33 856 25.28 12.4 54.3 32 -3.9 25
15:35 1027 30.33 856 25.28 12 53.6 33 -3.9 25
15:40 1027 30.33 856 25.28 11.8 53.2 33 -3.8 25.2
15:45 1027 30.33 856 25.28 11.8 53.3 33 -3.7 25.3
15:50 1027 30.33 856 25.28 11.4 52.6 34 -3.9 24.9
15:55 1027 30.33 856 25.28 11.6 52.9 33 -4.2 24.5
16:00 1027 30.33 856 25.28 12.3 54.2 32 -3.8 25.2
16:05 1027 30.33 856 25.28 12.1 53.8 33 -3.8 25.2
16:10 1027 30.33 856 25.28 11.6 52.9 33 -4 24.7
16:15 1027 30.33 856 25.28 11.4 52.5 34 -4 24.8
16:20 1027 30.33 856 25.28 11.2 52.2 34 -4.1 24.6
16:25 1026 30.3 856 25.28 11.2 52.2 34 -4 24.8
16:30 1026 30.3 856 25.28 11.2 52.2 34 -4.1 24.6
16:35 1026 30.3 856 25.28 11.7 53 33 -4 24.8
16:40 1026 30.3 855 25.25 11.6 53 33 -3.9 25
16:45 1026 30.3 855 25.25 11.9 53.4 33 -3.8 25.1
16:50 1026 30.3 855 25.25 11.7 53.1 33 -3.9 25.1
16:55 1026 30.3 855 25.25 11.8 53.3 33 -3.9 25
17:00 1026 30.3 855 25.25 12.1 53.8 33 -3.8 25.1
17:05 1026 30.3 855 25.25 12.3 54.2 32 -4 24.8
17:10 1026 30.3 855 25.25 12.6 54.6 32 -3.6 25.5
17:15 1026 30.3 855 25.25 11.9 53.4 37 -2.3 27.9
17:20 1026 30.3 855 25.25 11.7 53 36 -2.9 26.7
17:25 1026 30.3 855 25.25 11.9 53.5 36 -2.7 27.2
17:30 1026 30.3 855 25.25 11.8 53.2 36 -2.7 27.1
17:35 1026 30.3 855 25.25 11.7 53 37 -2.6 27.3
17:40 1026 30.3 855 25.25 11.3 52.3 38 -2.6 27.4
17:45 1026 30.3 855 25.25 11.1 51.9 38 -2.7 27.2
17:50 1026 30.3 855 25.25 11 51.8 39 -2.6 27.4
17:55 1026 30.3 855 25.25 10.8 51.5 39 -2.4 27.6
18:00 1026 30.3 855 25.25 10.9 51.6 39 -2.6 27.4
18:05 1026 30.3 855 25.25 10.9 51.6 38 -2.8 26.9
18:10 1026 30.3 855 25.25 10.9 51.6 38 -2.8 27
18:15 1026 30.3 855 25.25 11 51.8 38 -2.6 27.4
18:20 1026 30.3 855 25.25 10.9 51.6 39 -2.4 27.6
18:25 1026 30.3 855 25.25 10.9 51.5 38 -2.8 27
18:30 1026 30.3 855 25.25 10.9 51.6 38 -2.8 26.9
18:35 1026 30.3 855 25.25 10.7 51.3 39 -2.6 27.3
18:40 1026 30.3 855 25.25 10.6 51.1 40 -2.5 27.5
18:45 1026 30.3 855 25.25 10.5 51 40 -2.4 27.7
18:50 1026 30.3 855 25.25 10.4 50.7 41 -2.1 28.2
18:55 1026 30.3 855 25.25 10.3 50.6 43 -1.8 28.8
19:00 1025 30.27 855 25.25 10.1 50.2 42 -2 28.4
19:05 1025 30.27 855 25.25 9.9 49.8 43 -2.1 28.2
19:10 1025 30.27 855 25.25 9.8 49.6 44 -1.9 28.6
19:15 1025 30.27 855 25.25 9.6 49.2 44 -2.1 28.3
19:20 1025 30.27 855 25.25 9.3 48.8 44 -2.2 28
19:25 1025 30.27 855 25.25 9.1 48.4 44 -2.3 27.8
19:30 1026 30.3 855 25.25 9 48.2 45 -2.4 27.7
19:35 1026 30.3 855 25.25 8.9 48 45 -2.4 27.7
19:40 1025 30.27 855 25.25 8.9 47.9 45 -2.4 27.8
19:45 1025 30.27 855 25.25 8.8 47.8 45 -2.5 27.6
19:50 1025 30.27 855 25.25 8.8 47.8 44 -2.7 27.1
19:55 1025 30.27 855 25.25 8.7 47.7 44 -2.9 26.7
20:00 1025 30.27 855 25.25 8.7 47.6 44 -3 26.6
20:05 1025 30.27 855 25.25 8.6 47.5 43 -3.2 26.3
20:10 1025 30.27 855 25.25 8.6 47.4 43 -3.1 26.4
20:15 1025 30.27 855 25.25 8.5 47.4 43 -3.4 25.9
20:20 1026 30.3 855 25.25 8.5 47.3 43 -3.4 25.9
20:25 1026 30.3 855 25.25 8.5 47.2 43 -3.5 25.7
20:30 1026 30.3 855 25.25 8.5 47.2 43 -3.5 25.7
20:35 1026 30.3 855 25.25 8.4 47.1 43 -3.5 25.8
20:40 1026 30.3 855 25.25 8.4 47 43 -3.3 26
20:45 1026 30.3 855 25.25 8.3 47 43 -3.4 25.8
20:50 1026 30.3 855 25.25 8.3 46.9 44 -3.3 26.1
20:55 1026 30.3 855 25.25 8.2 46.8 44 -3.3 26.1
21:00 1026 30.3 855 25.25 8.2 46.7 44 -3.3 26
21:05 1026 30.3 855 25.25 8.2 46.7 45 -3.1 26.4
21:10 1026 30.3 855 25.25 8.1 46.6 44 -3.4 25.9
21:15 1026 30.3 855 25.25 8.1 46.6 45 -3.1 26.3
21:20 1026 30.3 855 25.25 8.1 46.6 44 -3.4 25.9
21:25 1026 30.3 855 25.25 8.1 46.6 44 -3.3 26
21:30 1026 30.3 855 25.25 8.1 46.6 43 -3.7 25.4
21:35 1026 30.3 855 25.25 8.2 46.7 44 -3.5 25.7
21:40 1026 30.3 855 25.25 8 46.5 44 -3.4 25.9
21:45 1026 30.3 855 25.25 7.9 46.3 44 -3.6 25.5
21:50 1026 30.3 855 25.25 7.8 46 44 -3.6 25.5
21:55 1026 30.3 855 25.25 7.6 45.8 45 -3.5 25.7
22:00 1025 30.27 855 25.25 7.6 45.6 46 -3.3 26
22:05 1025 30.27 855 25.25 7.5 45.5 46 -3.2 26.2
22:10 1025 30.27 855 25.25 7.5 45.4 47 -3 26.6
22:15 1025 30.27 855 25.25 7.3 45.2 48 -2.8 26.9
22:20 1025 30.27 855 25.25 7.2 45 49 -2.7 27.1
22:25 1025 30.27 855 25.25 7.2 45 50 -2.6 27.4
22:30 1025 30.27 855 25.25 7.1 44.9 50 -2.5 27.5
22:35 1025 30.27 855 25.25 7.1 44.7 50 -2.6 27.4
22:40 1025 30.27 854 25.22 7.1 44.8 51 -2.4 27.8
22:45 1025 30.27 854 25.22 7.1 44.7 51 -2.3 27.8
22:50 1025 30.27 854 25.22 7 44.6 51 -2.3 27.8
22:55 1025 30.27 854 25.22 7 44.7 51 -2.4 27.6
23:00 1025 30.27 854 25.22 7.1 44.7 51 -2.5 27.6
23:05 1025 30.27 854 25.22 7.1 44.8 51 -2.4 27.7
23:10 1025 30.27 854 25.22 7.1 44.8 51 -2.4 27.7
23:15 1025 30.27 854 25.22 7.1 44.8 51 -2.3 27.8
23:20 1025 30.27 854 25.22 7.1 44.7 51 -2.3 27.9
23:25 1025 30.27 854 25.22 6.9 44.5 52 -2.2 28
23:30 1025 30.27 854 25.22 6.8 44.2 52 -2.3 27.9
23:35 1025 30.27 854 25.22 6.7 44.1 52 -2.4 27.7
23:40 1025 30.27 854 25.22 6.7 44.1 52 -2.4 27.6
23:45 1025 30.27 854 25.22 6.6 44 53 -2.3 27.8
23:50 1025 30.27 854 25.22 6.5 43.7 54 -2.1 28.3
23:55 1025 30.27 854 25.22 6.4 43.5 53 -2.4 27.7
24:00 1025 30.27 854 25.22 6.4 43.5 53 -2.4 27.7